Flight Track Log - Related Links

Times and Time Zones

All times are in EST time to prevent confusion due to time zone crossing. See the XOJ552 flight status page for this flight to view local times or setup timezone preferences in your user account.

Time Position Orientation Groundspeed Altitude Reporting Facility
EST Latitude Longitude Course Direction KTS MPH feet Rate Location/Type
Thu 02:31:06 PM 36.0833 -86.7167 238° Southwest 201 231 3,000  Level Nashville TRACON
Thu 02:32:06 PM 36.0833 -86.8000 270° West 261 300 4,000 900 Climbing Nashville TRACON
Thu 02:33:06 PM 36.1000 -86.8833 284° West 258 297 4,800 2,913 Climbing Nashville TRACON
Thu 02:34:24 PM 36.1778 -86.9417 329° Northwest 261 300 10,700 4,157 Climbing Memphis Center
Thu 02:35:26 PM 36.2461 -86.9950 328° Northwest 278 320 14,500 2,468 Climbing Memphis Center
Thu 02:36:28 PM 36.3150 -87.0767 316° Northwest 333 383 15,800 677 Climbing Memphis Center
Thu 02:37:30 PM 36.3847 -87.1681 313° West 352 405 15,900 48 Climbing Memphis Center
Thu 02:38:32 PM 36.4528 -87.2578 313° West 354 407 15,900  Level Memphis Center
Thu 02:39:35 PM 36.5203 -87.3456 314° West 350 403 15,900  Level Memphis Center
Thu 02:40:37 PM 36.5886 -87.4361 313° West 352 405 15,900  Level Memphis Center
Thu 02:41:39 PM 36.6717 -87.5461 313° West 365 420 15,900  Level Memphis Center
Thu 02:42:41 PM 36.7422 -87.6383 314° West 365 420 15,900 97 Level Memphis Center
Thu 02:43:43 PM 36.8106 -87.7289 313° West 359 413 16,100 97 Climbing Memphis Center
Thu 02:44:45 PM 36.8786 -87.8208 313° West 356 410 16,100  Level Memphis Center
Thu 02:45:47 PM 36.9483 -87.9128 314° West 359 413 16,100  Level Memphis Center
Thu 02:46:49 PM 37.0161 -88.0058 312° West 359 413 16,100  Level Memphis Center
Thu 02:47:51 PM 37.0961 -88.1114 314° West 364 419 16,100 -145 Level Memphis Center
Thu 02:48:53 PM 37.1650 -88.2047 313° West 365 420 15,800 -871 Descending Memphis Center
Thu 02:49:55 PM 37.2325 -88.2956 313° West 359 413 14,300 -1,694 Descending Memphis Center
Thu 02:50:57 PM 37.2961 -88.3819 313° West 346 398 12,300 -1,935 Descending Memphis Center
Thu 02:51:59 PM 37.3583 -88.4653 313° West 333 383 10,300 -1,452 Descending Memphis Center
Thu 02:53:01 PM 37.4114 -88.5364 313° West 287 330 9,300 -1,344 Descending Memphis Center
Thu 02:54:04 PM 37.4672 -88.6142 312° West 254 292 7,500 -1,824 Descending Memphis Center
Thu 02:55:06 PM 37.5131 -88.6775 312° West 248 285 5,500 -1,645 Descending Memphis Center
Thu 02:56:08 PM 37.5608 -88.7436 312° West 249 287 4,100 -823 Descending Memphis Center
Thu 02:57:10 PM 37.6089 -88.8083 313° West 251 289 3,800 -242 Descending Memphis Center
Thu 02:58:12 PM 37.6569 -88.8742 313° West 252 290 3,600 -194 Descending Memphis Center
Thu 03:00:00 PM 37.7500 -89.0000 322° Northwest  Level FlightAware Approximate
Thu 03:07:00 PM 37.7550 -89.0111 322° Northwest  Level Estimated
Thu 03:08:00 PM 37.7550 -89.0111 322° Northwest  Level Estimated
Thu 03:09:00 PM 37.7550 -89.0111 322° Northwest  Level Estimated

Login

Don't have an account? Register now (free) for customized features, flight alerts, and more!